Terminal Aerodrome Forecast
Issued by NWS Mt. Holly, NJ

Home | Current Version | Previous Version | Text Only | Print | Product List | Glossary On
Versions: 1 2 3 4 5 6 7 8 9 10 11 12 13 14 15 16 17 18 19 20 21 22 23
000
FTUS41 KPHI 171720
TAFILG
TAF
KILG 171720Z 1718/1818 18007KT P6SM SCT070 BKN250
     FM180100 16006KT P6SM BKN070 OVC100
     FM180600 17006KT P6SM OVC040 PROB30 1806/1810 3SM SHRA OVC025
     FM181000 17006KT 3SM SHRA OVC025 PROB30 1810/1814 2SM -TSRA
      BKN015CB
     FM181400 18007KT 2SM SHRA OVC008 PROB30 1814/1817 1SM TSRA
      BKN008CB
     FM181700 20009KT P6SM OVC012=

USA.gov is the U.S. government's official web portal to all federal, state and local government web resources and services.